Time;durP1;ratioP1;P1;durP2;ratioP2;P2;SDS_P1;SDS_P2;PMS_P1;PMS_P2;Temp;Humidity;BMP_temperature;BMP_pressure;BME280_temperature;BME280_humidity;BME280_pressure;Samples;Min_cycle;Max_cycle;Signal;HPM_P1;HPM_P2
2021/03/09 00:00:31;;;;;;;7.97;7.18;;;-1.10;99.90;;;;;;5068029;28;20227;-69
2021/03/09 00:02:57;;;;;;;9.32;7.07;;;-1.10;99.90;;;;;;5068767;28;20232;-70
2021/03/09 00:05:23;;;;;;;11.32;7.75;;;-1.10;99.90;;;;;;5068245;28;20257;-70
2021/03/09 00:07:50;;;;;;;10.50;6.28;;;-1.10;99.90;;;;;;5068196;28;20738;-71
2021/03/09 00:10:16;;;;;;;8.25;6.85;;;-1.20;99.90;;;;;;5067750;28;20221;-70
2021/03/09 00:12:42;;;;;;;8.10;6.18;;;-1.20;99.90;;;;;;5068202;28;20196;-68
2021/03/09 00:15:11;;;;;;;8.00;6.70;;;-1.20;99.90;;;;;;5068048;28;20200;-69
2021/03/09 00:17:37;;;;;;;8.52;6.57;;;-1.30;99.90;;;;;;5068127;28;20196;-70
2021/03/09 00:20:04;;;;;;;8.40;6.70;;;-1.30;99.90;;;;;;5067369;28;20208;-70
2021/03/09 00:22:31;;;;;;;10.00;7.15;;;-1.30;99.90;;;;;;5067697;28;20227;-70
2021/03/09 00:24:57;;;;;;;9.38;6.85;;;-1.30;99.90;;;;;;5068594;28;20625;-69
2021/03/09 00:27:23;;;;;;;11.05;7.30;;;-1.30;99.90;;;;;;5068041;28;20213;-68
2021/03/09 00:29:49;;;;;;;9.32;7.03;;;-1.30;99.90;;;;;;5070963;28;20201;-69
2021/03/09 00:32:16;;;;;;;8.52;6.18;;;-1.40;99.90;;;;;;5068873;28;20812;-68
2021/03/09 00:34:43;;;;;;;9.98;6.65;;;-1.30;99.90;;;;;;5067840;28;20208;-70
2021/03/09 00:37:09;;;;;;;9.68;6.78;;;-1.30;99.90;;;;;;5067889;28;20200;-70
2021/03/09 00:39:35;;;;;;;9.00;6.45;;;-1.30;99.90;;;;;;5066995;28;20213;-70
2021/03/09 00:42:01;;;;;;;10.95;7.22;;;-1.40;99.90;;;;;;5068000;28;20230;-70
2021/03/09 00:44:28;;;;;;;8.88;6.32;;;-1.40;99.90;;;;;;5068099;28;20200;-70
2021/03/09 00:46:54;;;;;;;10.38;6.57;;;-1.40;99.90;;;;;;5067753;28;20258;-70
2021/03/09 00:49:21;;;;;;;7.85;6.53;;;-1.40;99.90;;;;;;5067622;28;20623;-70
2021/03/09 00:51:47;;;;;;;10.93;7.55;;;-1.40;99.90;;;;;;5067240;28;20702;-69
2021/03/09 00:54:13;;;;;;;7.55;5.75;;;-1.50;99.90;;;;;;5068065;28;20204;-72
2021/03/09 00:56:40;;;;;;;9.82;6.70;;;-1.50;99.90;;;;;;5068053;28;20265;-69
2021/03/09 00:59:06;;;;;;;11.75;7.60;;;-1.50;99.90;;;;;;5067546;28;20212;-68
2021/03/09 01:01:32;;;;;;;10.65;7.35;;;-1.50;99.90;;;;;;5069316;28;20231;-70
2021/03/09 01:03:58;;;;;;;11.30;8.00;;;-1.50;99.90;;;;;;5070067;28;20208;-70
2021/03/09 01:06:26;;;;;;;9.13;6.63;;;-1.50;99.90;;;;;;5069006;28;20698;-70
2021/03/09 01:08:52;;;;;;;10.30;7.55;;;-1.50;99.90;;;;;;5069712;28;20687;-69
2021/03/09 01:11:19;;;;;;;9.45;6.80;;;-1.50;99.90;;;;;;5068516;28;20225;-70
2021/03/09 01:13:45;;;;;;;8.07;6.43;;;-1.50;99.90;;;;;;5067998;28;20227;-70
2021/03/09 01:16:11;;;;;;;8.80;6.22;;;-1.60;99.90;;;;;;5067467;28;20208;-71
2021/03/09 01:18:37;;;;;;;8.27;6.60;;;-1.60;99.90;;;;;;5066951;28;20827;-70
2021/03/09 01:21:04;;;;;;;11.10;7.75;;;-1.60;99.90;;;;;;5067203;28;20224;-70
2021/03/09 01:23:31;;;;;;;10.20;6.93;;;-1.60;99.90;;;;;;5067068;28;20225;-70
2021/03/09 01:25:57;;;;;;;11.65;6.45;;;-1.60;99.90;;;;;;5067376;28;20725;-69
2021/03/09 01:28:24;;;;;;;9.52;6.75;;;-1.60;99.90;;;;;;5067513;28;20700;-69
2021/03/09 01:30:50;;;;;;;14.77;7.90;;;-1.70;99.90;;;;;;5064578;28;20949;-70
2021/03/09 01:33:17;;;;;;;10.05;7.22;;;-1.70;99.90;;;;;;5066916;28;20200;-68
2021/03/09 01:35:43;;;;;;;8.90;6.85;;;-1.70;99.90;;;;;;5066953;28;20209;-68
2021/03/09 01:38:09;;;;;;;11.90;7.60;;;-1.70;99.90;;;;;;5066938;28;20220;-68
2021/03/09 01:40:36;;;;;;;12.38;7.90;;;-1.70;99.90;;;;;;5065923;28;20236;-68
2021/03/09 01:43:03;;;;;;;9.48;7.07;;;-1.70;99.90;;;;;;5066829;28;20231;-70
2021/03/09 01:45:30;;;;;;;10.00;7.68;;;-1.70;99.90;;;;;;5066378;28;20223;-69
2021/03/09 01:48:00;;;;;;;11.50;7.97;;;-1.80;99.90;;;;;;5066533;28;20208;-70
2021/03/09 01:50:29;;;;;;;16.63;8.32;;;-1.80;99.90;;;;;;5066277;28;20221;-71
2021/03/09 01:52:55;;;;;;;10.73;7.25;;;-1.80;99.90;;;;;;5066989;28;20242;-71
2021/03/09 01:55:23;;;;;;;11.70;5.93;;;-1.80;99.90;;;;;;5066146;28;20201;-70
2021/03/09 01:57:51;;;;;;;10.38;7.60;;;-1.80;99.90;;;;;;5066821;28;20215;-70
2021/03/09 02:00:18;;;;;;;9.40;6.68;;;-1.80;99.90;;;;;;5064959;28;20239;-69
2021/03/09 02:02:45;;;;;;;8.88;6.93;;;-1.80;99.90;;;;;;5065872;28;20588;-70
2021/03/09 02:05:12;;;;;;;11.25;7.82;;;-1.80;99.90;;;;;;5065999;28;20208;-70
2021/03/09 02:07:39;;;;;;;12.13;7.72;;;-1.80;99.90;;;;;;5065906;28;20617;-70
2021/03/09 02:10:09;;;;;;;10.45;7.65;;;-1.90;99.90;;;;;;5068465;28;20551;-72
2021/03/09 02:12:47;;;;;;;9.50;7.30;;;-1.90;99.90;;;;;;5068499;28;20196;-70
2021/03/09 02:15:23;;;;;;;13.50;7.88;;;-1.90;99.90;;;;;;5068251;28;20204;-73
2021/03/09 02:17:58;;;;;;;11.88;7.47;;;-1.90;99.90;;;;;;5069851;28;20231;-70
2021/03/09 02:21:14;;;;;;;10.50;7.65;;;-1.90;99.90;;;;;;5068207;28;20274;-72
2021/03/09 02:24:13;;;;;;;10.45;6.65;;;-1.90;99.90;;;;;;5069165;28;20252;-72
2021/03/09 02:27:00;;;;;;;9.82;6.57;;;-2.00;99.90;;;;;;5068989;28;20207;-72
2021/03/09 02:29:38;;;;;;;10.25;7.50;;;-2.00;99.90;;;;;;5068550;28;20211;-72
2021/03/09 02:32:07;;;;;;;11.73;7.50;;;-2.00;99.90;;;;;;5069947;28;20273;-70
2021/03/09 02:34:36;;;;;;;10.02;7.35;;;-2.10;99.90;;;;;;5068670;28;20204;-70
2021/03/09 02:37:07;;;;;;;8.75;7.82;;;-2.00;99.90;;;;;;5068970;28;20506;-70
2021/03/09 02:39:36;;;;;;;10.23;7.88;;;-2.00;99.90;;;;;;5068352;28;20227;-71
2021/03/09 02:42:05;;;;;;;10.55;7.82;;;-2.00;99.90;;;;;;5069001;28;20595;-71
2021/03/09 02:44:34;;;;;;;10.00;7.47;;;-2.10;99.90;;;;;;5069080;28;20211;-71
2021/03/09 02:47:02;;;;;;;12.48;7.55;;;-2.10;99.90;;;;;;5068680;28;20196;-71
2021/03/09 02:49:32;;;;;;;9.23;7.35;;;-2.10;99.90;;;;;;5068122;28;20671;-68
2021/03/09 02:51:59;;;;;;;11.73;7.38;;;-2.10;99.90;;;;;;5068073;28;20220;-71
2021/03/09 02:54:28;;;;;;;10.70;6.90;;;-2.20;99.90;;;;;;5068838;28;20261;-71
2021/03/09 02:56:54;;;;;;;11.80;8.27;;;-2.10;99.90;;;;;;5069290;28;20212;-70
2021/03/09 02:59:21;;;;;;;14.60;7.97;;;-2.10;99.90;;;;;;5068341;28;20223;-71
2021/03/09 03:01:49;;;;;;;13.68;8.00;;;-2.10;99.90;;;;;;5068672;28;20227;-72
2021/03/09 03:04:17;;;;;;;11.43;8.60;;;-2.20;99.90;;;;;;5069287;28;20663;-72
2021/03/09 03:06:46;;;;;;;9.25;7.18;;;-2.20;99.90;;;;;;5069053;28;20209;-72
2021/03/09 03:09:13;;;;;;;13.50;8.57;;;-2.20;99.90;;;;;;5065187;28;20204;-71
2021/03/09 03:11:41;;;;;;;11.63;7.82;;;-2.20;99.90;;;;;;5067979;28;20228;-71
2021/03/09 03:14:08;;;;;;;10.20;8.38;;;-2.10;99.90;;;;;;5068816;28;20750;-72
2021/03/09 03:16:37;;;;;;;12.23;8.65;;;-2.10;99.90;;;;;;5068793;28;20270;-72
2021/03/09 03:19:06;;;;;;;14.85;9.80;;;-2.10;99.90;;;;;;5068119;28;20690;-72
2021/03/09 03:21:34;;;;;;;12.00;8.05;;;-2.00;99.90;;;;;;5068181;28;20699;-71
2021/03/09 03:24:03;;;;;;;11.18;8.85;;;-2.00;99.90;;;;;;5068835;28;20228;-71
2021/03/09 03:26:31;;;;;;;11.93;7.95;;;-2.10;99.90;;;;;;5067949;28;20257;-71
2021/03/09 03:28:59;;;;;;;11.20;8.13;;;-2.10;99.90;;;;;;5068294;28;20211;-71
2021/03/09 03:31:26;;;;;;;12.38;9.07;;;-2.20;99.90;;;;;;5067960;28;20703;-71
2021/03/09 03:33:52;;;;;;;11.75;8.32;;;-2.20;99.90;;;;;;5068303;28;20207;-71
2021/03/09 03:36:19;;;;;;;14.20;8.85;;;-2.20;99.90;;;;;;5068566;28;20223;-70
2021/03/09 03:38:45;;;;;;;11.48;8.65;;;-2.20;99.90;;;;;;5067324;28;20227;-70
2021/03/09 03:41:13;;;;;;;13.32;9.57;;;-2.30;99.90;;;;;;5068368;28;20242;-70
2021/03/09 03:43:39;;;;;;;12.10;8.57;;;-2.30;99.90;;;;;;5067841;28;20224;-71
2021/03/09 03:46:06;;;;;;;10.60;8.27;;;-2.30;99.90;;;;;;5066769;28;20204;-71
2021/03/09 03:48:34;;;;;;;14.82;9.63;;;-2.30;99.90;;;;;;5068066;28;20200;-70
2021/03/09 03:51:02;;;;;;;13.60;9.57;;;-2.30;99.90;;;;;;5067750;28;20224;-71
2021/03/09 03:53:34;;;;;;;10.93;8.95;;;-2.30;99.90;;;;;;5068187;28;20822;-71
2021/03/09 03:56:16;;;;;;;12.60;8.18;;;-2.30;99.90;;;;;;5068738;28;20676;-73
2021/03/09 03:58:47;;;;;;;9.60;8.10;;;-2.30;99.90;;;;;;5067372;28;20201;-73
2021/03/09 04:01:15;;;;;;;12.68;8.30;;;-2.30;99.90;;;;;;5068304;28;20232;-71
2021/03/09 04:03:41;;;;;;;13.52;9.20;;;-2.40;99.90;;;;;;5067453;28;20273;-70
2021/03/09 04:06:09;;;;;;;9.50;7.30;;;-2.40;99.90;;;;;;5067935;28;20242;-73
2021/03/09 04:08:38;;;;;;;11.45;8.80;;;-2.30;99.90;;;;;;5067386;28;20216;-72
2021/03/09 04:11:06;;;;;;;10.30;8.57;;;-2.30;99.90;;;;;;5068079;28;20718;-71
2021/03/09 04:13:37;;;;;;;11.02;8.50;;;-2.30;99.90;;;;;;5068136;28;20203;-72
2021/03/09 04:16:04;;;;;;;13.27;8.23;;;-2.30;99.90;;;;;;5068203;28;20668;-72
2021/03/09 04:18:32;;;;;;;9.80;8.38;;;-2.30;99.90;;;;;;5068068;28;20197;-72
2021/03/09 04:20:59;;;;;;;13.00;8.63;;;-2.30;99.90;;;;;;5068014;28;20562;-69
2021/03/09 04:23:26;;;;;;;12.20;8.70;;;-2.40;99.90;;;;;;5067828;28;20224;-70
2021/03/09 04:25:54;;;;;;;12.80;8.70;;;-2.40;99.90;;;;;;5068077;28;20201;-72
2021/03/09 04:28:22;;;;;;;12.88;9.10;;;-2.50;99.90;;;;;;5071031;28;20307;-71
2021/03/09 04:30:49;;;;;;;11.52;8.45;;;-2.50;99.90;;;;;;5071436;28;20220;-72
2021/03/09 04:33:16;;;;;;;14.48;9.25;;;-2.40;99.90;;;;;;5071453;28;20211;-72
2021/03/09 04:35:42;;;;;;;13.77;9.32;;;-2.40;99.90;;;;;;5070952;28;20208;-73
2021/03/09 04:38:09;;;;;;;15.93;9.32;;;-2.30;99.90;;;;;;5070014;28;20208;-72
2021/03/09 04:40:36;;;;;;;14.48;10.55;;;-2.30;99.90;;;;;;5071030;28;20240;-72
2021/03/09 04:43:03;;;;;;;13.57;8.75;;;-2.40;99.90;;;;;;5072213;28;20224;-73
2021/03/09 04:45:29;;;;;;;12.77;9.90;;;-2.40;99.90;;;;;;5072094;28;20246;-73
2021/03/09 04:48:00;;;;;;;14.60;9.73;;;-2.40;99.90;;;;;;5072308;28;20208;-72
2021/03/09 04:50:27;;;;;;;12.70;9.43;;;-2.40;99.90;;;;;;5071288;28;20910;-72
2021/03/09 04:52:54;;;;;;;12.70;9.25;;;-2.40;99.90;;;;;;5071715;28;20208;-71
2021/03/09 04:55:22;;;;;;;12.40;9.52;;;-2.40;99.90;;;;;;5071372;28;20200;-71
2021/03/09 04:57:49;;;;;;;12.30;8.55;;;-2.40;99.90;;;;;;5071212;28;20204;-73
2021/03/09 05:00:17;;;;;;;11.52;8.80;;;-2.40;99.90;;;;;;5066621;28;20903;-73
2021/03/09 05:02:45;;;;;;;10.73;8.65;;;-2.40;99.90;;;;;;5068276;28;20696;-72
2021/03/09 05:05:14;;;;;;;11.70;9.02;;;-2.40;99.90;;;;;;5067686;28;20200;-72
2021/03/09 05:07:40;;;;;;;14.00;9.57;;;-2.50;99.90;;;;;;5067713;28;20886;-72
2021/03/09 05:10:09;;;;;;;12.00;9.02;;;-2.50;99.90;;;;;;5067545;28;20219;-73
2021/03/09 05:12:38;;;;;;;12.80;9.30;;;-2.50;99.90;;;;;;5068987;28;20287;-72
2021/03/09 05:15:06;;;;;;;13.07;9.20;;;-2.50;99.90;;;;;;5065492;28;20200;-72
2021/03/09 05:17:32;;;;;;;11.30;8.13;;;-2.50;99.90;;;;;;5066674;28;20565;-73
2021/03/09 05:19:58;;;;;;;11.43;9.43;;;-2.50;99.90;;;;;;5068888;28;20200;-71
2021/03/09 05:22:25;;;;;;;12.95;8.90;;;-2.50;99.90;;;;;;5069056;28;20209;-71
2021/03/09 05:24:52;;;;;;;13.38;11.02;;;-2.50;99.90;;;;;;5069228;28;20458;-69
2021/03/09 05:27:18;;;;;;;12.07;10.77;;;-2.50;99.90;;;;;;5070717;28;20197;-71
2021/03/09 05:29:44;;;;;;;14.32;9.77;;;-2.50;99.90;;;;;;5069017;28;20207;-73
2021/03/09 05:32:10;;;;;;;13.65;10.00;;;-2.40;99.90;;;;;;5069327;28;20217;-71
2021/03/09 05:34:37;;;;;;;15.38;9.43;;;-2.40;99.90;;;;;;5067932;28;20204;-71
2021/03/09 05:37:03;;;;;;;14.13;9.30;;;-2.30;99.90;;;;;;5070181;28;20200;-70
2021/03/09 05:39:30;;;;;;;11.90;9.23;;;-2.30;99.90;;;;;;5067593;28;20733;-72
2021/03/09 05:41:56;;;;;;;13.43;9.90;;;-2.30;99.90;;;;;;5069047;28;20235;-71
2021/03/09 05:44:23;;;;;;;12.05;9.70;;;-2.30;99.90;;;;;;5069979;28;20208;-72
2021/03/09 05:46:49;;;;;;;12.73;8.25;;;-2.30;99.90;;;;;;5069779;28;20205;-71
2021/03/09 05:49:16;;;;;;;12.30;8.65;;;-2.30;99.90;;;;;;5069476;28;20208;-70
2021/03/09 05:51:42;;;;;;;13.63;10.13;;;-2.40;99.90;;;;;;5069210;28;20232;-70
2021/03/09 05:54:09;;;;;;;15.25;10.80;;;-2.40;99.90;;;;;;5068652;28;20192;-70
2021/03/09 05:56:36;;;;;;;12.43;10.25;;;-2.30;99.90;;;;;;5069177;28;20200;-70
2021/03/09 05:59:03;;;;;;;11.55;9.23;;;-2.40;99.90;;;;;;5069053;28;20204;-71
2021/03/09 06:01:31;;;;;;;16.70;10.25;;;-2.40;99.90;;;;;;5069032;28;20228;-71
2021/03/09 06:03:58;;;;;;;13.05;9.40;;;-2.30;99.90;;;;;;5069736;28;20239;-71
2021/03/09 06:06:25;;;;;;;14.95;9.15;;;-2.30;99.90;;;;;;5068928;28;20209;-70
2021/03/09 06:08:51;;;;;;;13.35;10.23;;;-2.30;99.90;;;;;;5068766;28;20205;-71
2021/03/09 06:11:18;;;;;;;13.07;9.75;;;-2.30;99.90;;;;;;5069364;28;20620;-70
2021/03/09 06:13:46;;;;;;;16.35;10.75;;;-2.20;99.90;;;;;;5069375;28;20218;-72
2021/03/09 06:16:12;;;;;;;17.17;11.45;;;-2.20;99.90;;;;;;5069453;28;20224;-70
2021/03/09 06:18:51;;;;;;;14.40;10.07;;;-2.20;99.90;;;;;;5068386;28;20204;-70
2021/03/09 06:21:18;;;;;;;14.18;10.57;;;-2.10;99.90;;;;;;5069048;28;20220;-72
2021/03/09 06:23:45;;;;;;;15.07;10.98;;;-2.00;99.90;;;;;;5069034;28;20232;-72
2021/03/09 06:26:34;;;;;;;13.18;10.23;;;-1.90;99.90;;;;;;5069444;28;20204;-70
2021/03/09 06:29:09;;;;;;;15.80;10.82;;;-1.90;99.90;;;;;;5068872;28;20204;-71
2021/03/09 06:31:35;;;;;;;17.23;12.35;;;-1.90;99.90;;;;;;5068438;28;20586;-72
2021/03/09 06:34:20;;;;;;;15.90;11.98;;;-1.90;99.90;;;;;;5069356;28;20219;-71
2021/03/09 06:37:05;;;;;;;14.50;11.00;;;-1.80;99.90;;;;;;5069126;28;20208;-71
2021/03/09 06:40:03;;;;;;;17.65;11.25;;;-1.70;99.90;;;;;;5067990;28;20235;-72
2021/03/09 06:42:35;;;;;;;16.17;10.90;;;-1.60;99.90;;;;;;5068531;28;20710;-72
2021/03/09 06:45:05;;;;;;;18.05;11.02;;;-1.50;99.90;;;;;;5068347;28;20196;-72
2021/03/09 06:47:40;;;;;;;15.93;11.38;;;-1.40;99.90;;;;;;5068796;28;20204;-72
2021/03/09 06:50:09;;;;;;;18.33;11.02;;;-1.40;99.90;;;;;;5067949;28;20694;-71
2021/03/09 06:52:35;;;;;;;18.25;11.35;;;-1.30;99.90;;;;;;5068371;28;20252;-71
2021/03/09 06:55:03;;;;;;;17.98;11.52;;;-1.20;99.90;;;;;;5069056;28;20208;-72
2021/03/09 06:57:29;;;;;;;14.90;11.07;;;-1.10;99.90;;;;;;5067782;28;20695;-72
2021/03/09 06:59:56;;;;;;;16.88;11.18;;;-1.00;99.90;;;;;;5067728;28;20208;-70
2021/03/09 07:02:24;;;;;;;15.98;12.63;;;-0.90;99.90;;;;;;5068173;28;20207;-71
2021/03/09 07:04:52;;;;;;;14.73;11.25;;;-0.80;99.90;;;;;;5068862;28;20686;-72
2021/03/09 07:07:27;;;;;;;20.45;12.75;;;-0.70;99.90;;;;;;5068760;28;20227;-71
2021/03/09 07:09:56;;;;;;;17.08;12.50;;;-0.50;99.90;;;;;;5067913;28;20208;-69
2021/03/09 07:12:23;;;;;;;16.55;12.55;;;-0.40;99.90;;;;;;5069414;28;20295;-70
2021/03/09 07:14:51;;;;;;;18.17;12.55;;;-0.30;99.90;;;;;;5069221;28;20207;-72
2021/03/09 07:17:21;;;;;;;18.83;13.00;;;-0.20;99.90;;;;;;5069404;28;20201;-72
2021/03/09 07:19:49;;;;;;;16.55;13.13;;;0.00;99.90;;;;;;5068255;28;20208;-72
2021/03/09 07:22:18;;;;;;;16.85;13.20;;;0.10;99.90;;;;;;5068400;28;20766;-71
2021/03/09 07:25:02;;;;;;;17.27;13.07;;;0.30;99.90;;;;;;5069117;28;20215;-73
2021/03/09 07:27:40;;;;;;;26.15;13.43;;;0.50;99.90;;;;;;5066054;28;20209;-72
2021/03/09 07:30:08;;;;;;;16.48;13.48;;;0.80;99.90;;;;;;5068405;28;20696;-71
2021/03/09 07:32:38;;;;;;;20.02;14.48;;;1.10;99.90;;;;;;5068990;28;20291;-72
2021/03/09 07:35:07;;;;;;;17.73;13.00;;;1.30;99.90;;;;;;5068855;28;20201;-71
2021/03/09 07:37:36;;;;;;;15.90;11.25;;;1.70;99.90;;;;;;5068520;28;20208;-72
2021/03/09 07:40:05;;;;;;;15.13;12.63;;;2.10;99.90;;;;;;5067710;28;20212;-72
2021/03/09 07:42:31;;;;;;;15.90;11.73;;;2.40;99.90;;;;;;5067969;28;20258;-72
2021/03/09 07:44:57;;;;;;;18.65;12.70;;;2.80;99.90;;;;;;5068625;28;20204;-72
2021/03/09 07:47:25;;;;;;;14.95;12.40;;;3.20;99.90;;;;;;5068099;28;20204;-70
2021/03/09 07:49:51;;;;;;;15.95;12.23;;;3.80;99.90;;;;;;5068540;28;20211;-71
2021/03/09 07:52:20;;;;;;;17.70;13.27;;;4.20;99.90;;;;;;5068776;28;20204;-72
2021/03/09 07:55:18;;;;;;;19.88;11.68;;;4.40;99.90;;;;;;5068641;28;20211;-72
2021/03/09 07:57:45;;;;;;;15.25;11.38;;;4.40;99.90;;;;;;5067999;28;20246;-71
2021/03/09 08:00:13;;;;;;;14.50;11.07;;;4.60;99.90;;;;;;5067684;28;20221;-71
2021/03/09 08:02:49;;;;;;;13.40;10.73;;;4.80;99.90;;;;;;5070887;28;21012;-71
2021/03/09 08:05:16;;;;;;;15.32;11.15;;;4.90;99.90;;;;;;5072588;28;20594;-71
2021/03/09 08:08:02;;;;;;;22.17;12.43;;;5.00;99.90;;;;;;5070433;28;20218;-72
2021/03/09 08:10:45;;;;;;;12.98;11.20;;;4.90;99.90;;;;;;5070081;28;20265;-72
2021/03/09 08:13:25;;;;;;;15.80;11.48;;;4.80;99.90;;;;;;5072669;28;20211;-72
2021/03/09 08:16:12;;;;;;;17.80;12.63;;;4.70;99.90;;;;;;5072411;28;20196;-72
2021/03/09 08:18:44;;;;;;;18.63;12.70;;;4.70;99.90;;;;;;5071510;28;20200;-73
2021/03/09 08:21:10;;;;;;;19.65;14.50;;;4.90;99.90;;;;;;5072381;28;20273;-72
2021/03/09 08:23:56;;;;;;;18.48;14.32;;;4.90;99.90;;;;;;5070632;28;20223;-72
2021/03/09 08:26:44;;;;;;;20.73;12.30;;;5.10;99.90;;;;;;5072029;28;20290;-72
2021/03/09 08:29:36;;;;;;;17.35;13.55;;;5.30;99.90;;;;;;5071717;28;20610;-71
2021/03/09 08:32:39;;;;;;;17.17;12.00;;;5.80;99.90;;;;;;5071488;28;20220;-72
2021/03/09 08:35:34;;;;;;;17.98;12.88;;;6.40;99.00;;;;;;5072020;28;20239;-72
2021/03/09 08:38:22;;;;;;;18.90;11.93;;;6.90;97.60;;;;;;5071334;28;20204;-72
2021/03/09 08:41:06;;;;;;;18.02;13.90;;;7.40;97.00;;;;;;5071020;28;20224;-73
2021/03/09 08:43:33;;;;;;;18.48;13.23;;;7.70;96.00;;;;;;5071817;28;20221;-72
2021/03/09 08:46:01;;;;;;;20.45;13.65;;;7.70;95.20;;;;;;5072355;28;20196;-72
2021/03/09 08:48:52;;;;;;;16.33;12.63;;;7.60;95.70;;;;;;5071172;28;20200;-71
2021/03/09 08:51:49;;;;;;;16.20;12.43;;;7.70;95.20;;;;;;5071760;28;20224;-68
2021/03/09 08:54:31;;;;;;;18.40;13.90;;;7.60;95.30;;;;;;5072028;28;20286;-72
2021/03/09 08:57:01;;;;;;;15.25;12.40;;;7.70;95.30;;;;;;5071515;28;20210;-73
2021/03/09 08:59:29;;;;;;;15.05;11.50;;;7.90;95.70;;;;;;5070579;28;20675;-73
2021/03/09 09:02:18;;;;;;;18.50;14.68;;;8.10;95.30;;;;;;5071595;28;20232;-71
2021/03/09 09:04:46;;;;;;;14.57;12.82;;;8.40;94.50;;;;;;5068627;28;20550;-74
2021/03/09 09:07:26;;;;;;;15.38;11.57;;;8.60;93.80;;;;;;5071243;28;20200;-70
2021/03/09 09:09:55;;;;;;;13.93;11.85;;;8.70;93.80;;;;;;5070531;28;20204;-70
2021/03/09 09:12:25;;;;;;;17.75;12.00;;;8.70;93.90;;;;;;5070000;28;20216;-72
2021/03/09 09:15:11;;;;;;;16.35;12.20;;;9.10;94.10;;;;;;5071621;28;20211;-73
2021/03/09 09:17:38;;;;;;;14.57;12.40;;;9.80;92.80;;;;;;5071210;28;20200;-72
2021/03/09 09:20:08;;;;;;;17.90;11.93;;;9.90;92.40;;;;;;5070547;28;20583;-71
2021/03/09 09:22:34;;;;;;;18.13;12.60;;;10.20;91.20;;;;;;5070151;28;20200;-72
2021/03/09 09:25:04;;;;;;;17.30;13.27;;;10.30;90.60;;;;;;5070974;28;20208;-71
2021/03/09 09:27:39;;;;;;;18.48;13.07;;;10.30;90.50;;;;;;5071113;28;20694;-72
2021/03/09 09:30:07;;;;;;;14.38;11.13;;;10.40;90.20;;;;;;5066652;28;20203;-72
2021/03/09 09:33:02;;;;;;;15.43;11.65;;;10.40;89.90;;;;;;5070859;28;20204;-72
2021/03/09 09:35:30;;;;;;;15.10;11.98;;;10.40;89.00;;;;;;5070558;28;20208;-72
2021/03/09 09:37:58;;;;;;;15.15;12.00;;;10.10;88.30;;;;;;5069905;28;20200;-71
2021/03/09 09:40:29;;;;;;;14.60;11.77;;;9.60;90.50;;;;;;5069720;28;20220;-72
2021/03/09 09:43:05;;;;;;;15.02;12.38;;;9.40;91.00;;;;;;5069972;28;20224;-72
2021/03/09 09:45:33;;;;;;;13.35;11.05;;;9.50;91.10;;;;;;5069427;28;20208;-70
2021/03/09 09:48:01;;;;;;;17.27;12.05;;;9.40;90.70;;;;;;5070348;28;20675;-72
2021/03/09 09:50:28;;;;;;;15.38;11.55;;;9.10;91.20;;;;;;5068517;28;20231;-71
2021/03/09 09:52:59;;;;;;;12.88;11.48;;;9.00;91.30;;;;;;5070157;28;20197;-71
2021/03/09 09:55:27;;;;;;;14.02;11.60;;;9.20;91.90;;;;;;5069849;28;20663;-70
2021/03/09 09:57:54;;;;;;;17.67;10.75;;;9.30;91.60;;;;;;5069855;28;20204;-72
2021/03/09 10:00:24;;;;;;;13.77;11.05;;;9.60;90.80;;;;;;5069120;28;20581;-72
2021/03/09 10:03:11;;;;;;;13.35;11.13;;;9.70;89.60;;;;;;5069787;28;20227;-71
2021/03/09 10:05:38;;;;;;;15.98;10.50;;;10.00;89.10;;;;;;5069766;28;20236;-72
2021/03/09 10:08:05;;;;;;;12.13;10.50;;;10.30;88.70;;;;;;5069626;28;20204;-71
2021/03/09 10:10:31;;;;;;;14.73;11.75;;;10.30;87.70;;;;;;5068490;28;20239;-72
2021/03/09 10:12:58;;;;;;;14.10;11.15;;;10.60;88.50;;;;;;5069132;28;20196;-72
2021/03/09 10:15:44;;;;;;;14.18;11.80;;;10.80;88.10;;;;;;5069774;28;20223;-72
2021/03/09 10:18:15;;;;;;;14.65;10.63;;;11.10;86.40;;;;;;5069755;28;20207;-72
2021/03/09 10:20:42;;;;;;;14.20;10.20;;;11.20;85.30;;;;;;5068569;28;20227;-70
2021/03/09 10:23:09;;;;;;;15.00;10.98;;;11.50;85.10;;;;;;5069328;28;20706;-71
2021/03/09 10:25:39;;;;;;;12.68;11.00;;;11.90;83.80;;;;;;5068785;28;20959;-71
2021/03/09 10:28:06;;;;;;;13.07;9.85;;;12.20;83.50;;;;;;5069462;28;20204;-72
2021/03/09 10:30:38;;;;;;;10.10;9.10;;;12.10;82.50;;;;;;5068895;28;20224;-72
2021/03/09 10:33:09;;;;;;;10.27;8.48;;;12.20;81.20;;;;;;5069853;28;20245;-72
2021/03/09 10:35:35;;;;;;;11.95;10.07;;;12.50;80.30;;;;;;5069269;28;20200;-73
2021/03/09 10:38:02;;;;;;;10.98;9.25;;;12.40;80.70;;;;;;5069362;28;20246;-72
2021/03/09 10:40:33;;;;;;;13.48;9.50;;;12.40;81.70;;;;;;5067929;28;20224;-71
2021/03/09 10:43:01;;;;;;;11.10;9.75;;;12.60;80.00;;;;;;5069448;28;20220;-72
2021/03/09 10:45:29;;;;;;;9.55;8.60;;;12.40;81.20;;;;;;5068746;28;20258;-71
2021/03/09 10:47:59;;;;;;;10.15;9.02;;;12.60;79.80;;;;;;5069432;28;20901;-73
2021/03/09 10:50:27;;;;;;;10.73;8.65;;;12.90;79.30;;;;;;5068528;28;20223;-71
2021/03/09 10:52:53;;;;;;;10.88;9.63;;;13.30;78.30;;;;;;5069033;28;20212;-72
2021/03/09 10:55:20;;;;;;;9.70;8.70;;;13.70;77.80;;;;;;5069510;28;20209;-72
2021/03/09 10:57:46;;;;;;;8.83;7.93;;;14.00;76.50;;;;;;5069473;28;20211;-72
2021/03/09 11:00:15;;;;;;;10.40;9.37;;;14.20;75.00;;;;;;5068621;28;20894;-72
2021/03/09 11:02:42;;;;;;;12.03;7.60;;;13.80;75.00;;;;;;5067960;28;20463;-71
2021/03/09 11:05:10;;;;;;;8.13;7.33;;;14.10;74.70;;;;;;5068037;28;20830;-72
2021/03/09 11:07:36;;;;;;;10.50;8.40;;;14.20;73.10;;;;;;5068026;28;20458;-72
2021/03/09 11:10:04;;;;;;;9.50;8.60;;;14.30;72.90;;;;;;5068521;28;20969;-71
2021/03/09 11:12:32;;;;;;;9.60;8.60;;;14.20;72.60;;;;;;5068839;28;20488;-72
2021/03/09 11:14:59;;;;;;;11.13;9.27;;;13.90;73.20;;;;;;5069243;28;20480;-71
2021/03/09 11:17:25;;;;;;;9.43;8.50;;;13.60;73.80;;;;;;5067962;28;20454;-73
2021/03/09 11:19:51;;;;;;;14.30;8.53;;;13.30;72.90;;;;;;5067759;28;20828;-71
2021/03/09 11:22:19;;;;;;;9.27;8.37;;;12.90;72.30;;;;;;5068550;28;20473;-71
2021/03/09 11:24:45;;;;;;;8.50;7.70;;;12.70;71.30;;;;;;5068782;28;20555;-72
2021/03/09 11:27:11;;;;;;;7.93;7.13;;;12.60;71.80;;;;;;5068389;28;20508;-69
2021/03/09 11:29:38;;;;;;;8.17;7.37;;;12.60;72.50;;;;;;5066749;28;20509;-69
2021/03/09 11:32:05;;;;;;;8.98;8.07;;;12.70;70.90;;;;;;5068321;28;20485;-71
2021/03/09 11:34:31;;;;;;;8.95;8.15;;;12.40;72.20;;;;;;5068360;28;20609;-71
2021/03/09 11:36:57;;;;;;;9.57;8.65;;;12.10;71.40;;;;;;5072851;28;20200;-71
2021/03/09 11:39:25;;;;;;;8.68;7.78;;;12.20;70.90;;;;;;5072032;28;20211;-70
2021/03/09 11:41:52;;;;;;;7.35;6.65;;;12.40;70.60;;;;;;5072406;28;20772;-71
2021/03/09 11:44:19;;;;;;;8.32;7.63;;;12.60;70.00;;;;;;5072031;28;20238;-70
2021/03/09 11:46:45;;;;;;;8.63;7.73;;;12.70;69.90;;;;;;5071852;28;20204;-71
2021/03/09 11:49:12;;;;;;;8.30;7.60;;;12.80;68.90;;;;;;5072038;28;20454;-71
2021/03/09 11:51:38;;;;;;;9.03;7.37;;;13.00;69.30;;;;;;5071885;28;20224;-71
2021/03/09 11:54:05;;;;;;;8.13;7.17;;;13.20;69.60;;;;;;5072472;28;20824;-71
2021/03/09 11:56:32;;;;;;;7.73;7.00;;;13.60;68.30;;;;;;5072129;28;20473;-71
2021/03/09 11:58:58;;;;;;;9.13;7.80;;;13.80;67.90;;;;;;5071826;28;20532;-71
2021/03/09 12:01:24;;;;;;;8.13;6.50;;;14.20;65.50;;;;;;5071847;28;20474;-71
2021/03/09 12:03:51;;;;;;;8.87;7.97;;;14.60;65.90;;;;;;5071682;28;20482;-69
2021/03/09 12:06:18;;;;;;;8.63;7.73;;;14.60;66.90;;;;;;5072352;28;20462;-73
2021/03/09 12:08:44;;;;;;;8.20;7.50;;;14.70;65.40;;;;;;5071451;28;20473;-71
2021/03/09 12:11:12;;;;;;;8.77;7.87;;;14.80;65.20;;;;;;5072117;28;20552;-71
2021/03/09 12:13:39;;;;;;;8.07;7.23;;;15.30;64.40;;;;;;5071563;28;20500;-71
2021/03/09 12:16:06;;;;;;;8.30;7.50;;;15.50;63.30;;;;;;5071779;28;20462;-71
2021/03/09 12:18:32;;;;;;;8.03;7.23;;;15.70;62.40;;;;;;5071348;28;20462;-70
2021/03/09 12:20:59;;;;;;;8.73;6.80;;;15.50;62.10;;;;;;5071671;28;20486;-70
2021/03/09 12:23:25;;;;;;;7.43;6.63;;;15.80;62.40;;;;;;5070857;28;20478;-74
2021/03/09 12:25:52;;;;;;;8.30;7.40;;;15.60;62.00;;;;;;5070903;28;20449;-71
2021/03/09 12:28:18;;;;;;;8.60;7.70;;;15.60;62.60;;;;;;5071252;28;20462;-71
2021/03/09 12:30:46;;;;;;;8.60;7.13;;;15.70;62.20;;;;;;5069626;28;21008;-70
2021/03/09 12:33:12;;;;;;;7.80;7.00;;;15.60;62.60;;;;;;5070759;28;20454;-71
2021/03/09 12:35:39;;;;;;;7.97;7.27;;;15.80;62.50;;;;;;5070042;28;20458;-70
2021/03/09 12:38:05;;;;;;;7.70;7.00;;;15.80;60.00;;;;;;5071159;28;20476;-70
2021/03/09 12:40:32;;;;;;;7.70;6.90;;;15.50;60.80;;;;;;5069868;28;20478;-72
2021/03/09 12:42:58;;;;;;;7.90;7.10;;;14.90;61.20;;;;;;5070627;28;20531;-70
2021/03/09 12:45:24;;;;;;;7.97;7.17;;;14.10;63.10;;;;;;5070570;28;20459;-72
2021/03/09 12:47:52;;;;;;;7.70;6.53;;;14.00;63.60;;;;;;5070125;28;20553;-72
2021/03/09 12:50:19;;;;;;;7.97;7.00;;;14.50;64.30;;;;;;5070207;28;20489;-72